createdAt,value
2023-05-05T00:01:56.637Z,46.94
2023-05-05T00:04:25.176Z,47.19
2023-05-05T00:06:53.613Z,47.10
2023-05-05T00:09:23.538Z,47.48
2023-05-05T00:11:51.966Z,46.97
2023-05-05T00:14:20.322Z,47.09
2023-05-05T00:16:48.875Z,47.14
2023-05-05T00:19:17.419Z,47.39
2023-05-05T00:21:45.858Z,47.25
2023-05-05T00:24:14.279Z,47.39
2023-05-05T00:26:44.060Z,47.35
2023-05-05T00:29:12.438Z,47.58
2023-05-05T00:31:40.924Z,47.20
2023-05-05T00:34:09.466Z,47.48
2023-05-05T00:36:37.913Z,47.30
2023-05-05T00:39:06.334Z,47.08
2023-05-05T00:41:34.856Z,47.50
2023-05-05T00:44:04.854Z,47.53
2023-05-05T00:46:35.750Z,47.45
2023-05-05T00:49:04.263Z,47.35
2023-05-05T00:51:33.270Z,47.25
2023-05-05T00:54:02.267Z,47.65
2023-05-05T00:56:30.915Z,47.48
2023-05-05T00:58:59.372Z,47.52
2023-05-05T01:01:29.419Z,47.25
2023-05-05T01:03:58.116Z,47.28
2023-05-05T01:06:43.055Z,47.30
2023-05-05T01:09:25.020Z,47.62
2023-05-05T01:12:02.223Z,47.36
2023-05-05T01:14:39.673Z,47.53
2023-05-05T01:17:17.349Z,47.35
2023-05-05T01:20:00.140Z,47.64
2023-05-05T01:22:41.752Z,47.75
2023-05-05T01:25:31.890Z,47.64
2023-05-05T01:28:12.157Z,47.46
2023-05-05T01:30:59.451Z,47.67
2023-05-05T01:33:36.908Z,47.31
2023-05-05T01:36:12.596Z,47.46
2023-05-05T01:38:43.271Z,47.45
2023-05-05T01:41:16.265Z,47.66
2023-05-05T01:43:47.061Z,47.43
2023-05-05T01:46:17.407Z,47.67
2023-05-05T01:48:49.300Z,47.82
2023-05-05T01:51:20.148Z,47.68
2023-05-05T01:53:51.341Z,47.66
2023-05-05T01:56:21.306Z,47.84
2023-05-05T01:58:50.806Z,47.43
2023-05-05T02:01:21.926Z,47.75
2023-05-05T02:03:53.382Z,47.42
2023-05-05T02:06:23.868Z,47.50
2023-05-05T02:08:53.865Z,47.48
2023-05-05T02:11:22.538Z,47.50
2023-05-05T02:13:52.834Z,47.88
2023-05-05T02:16:23.759Z,47.72
2023-05-05T02:18:55.707Z,47.61
2023-05-05T02:21:24.265Z,47.48
2023-05-05T02:23:53.606Z,47.84
2023-05-05T02:26:26.179Z,47.47
2023-05-05T02:29:03.541Z,47.83
2023-05-05T02:31:35.538Z,47.92
2023-05-05T02:34:07.186Z,47.73
2023-05-05T02:36:39.496Z,47.61
2023-05-05T02:39:12.601Z,47.78
2023-05-05T02:41:44.276Z,47.54
2023-05-05T02:44:24.599Z,47.59
2023-05-05T02:46:55.102Z,47.84
2023-05-05T02:49:26.187Z,47.64
2023-05-05T02:51:59.754Z,47.66
2023-05-05T02:54:32.573Z,47.95
2023-05-05T02:57:02.513Z,47.92
2023-05-05T02:59:47.315Z,47.90
2023-05-05T03:02:25.650Z,47.55
2023-05-05T03:05:01.757Z,47.96
2023-05-05T03:07:35.892Z,47.74
2023-05-05T03:10:09.801Z,47.94
2023-05-05T03:12:49.441Z,47.63
2023-05-05T03:15:26.743Z,47.97
2023-05-05T03:17:57.553Z,47.95
2023-05-05T03:20:27.708Z,48.10
2023-05-05T03:22:58.635Z,47.68
2023-05-05T03:25:45.847Z,47.87
2023-05-05T03:28:21.763Z,48.05
2023-05-05T03:30:50.273Z,47.82
2023-05-05T03:33:20.268Z,47.95
2023-05-05T03:35:50.260Z,47.81
2023-05-05T03:38:19.728Z,47.70
2023-05-05T03:40:48.265Z,47.68
2023-05-05T03:43:20.776Z,47.76
2023-05-05T03:45:50.491Z,47.73
2023-05-05T03:48:19.254Z,47.91
2023-05-05T03:50:47.976Z,47.85
2023-05-05T03:53:19.109Z,47.92
2023-05-05T03:55:47.556Z,47.71
2023-05-05T03:58:16.438Z,47.66
2023-05-05T04:00:45.350Z,47.94
2023-05-05T04:03:14.517Z,47.91
2023-05-05T04:05:44.046Z,47.88
2023-05-05T04:08:12.918Z,48.08
2023-05-05T04:10:43.590Z,47.98
2023-05-05T04:13:12.161Z,47.98
2023-05-05T04:15:45.627Z,48.14
2023-05-05T04:18:14.618Z,47.87
2023-05-05T04:20:43.007Z,47.80
2023-05-05T04:23:12.902Z,48.19
2023-05-05T04:25:43.462Z,48.12
2023-05-05T04:28:13.535Z,47.87
2023-05-05T04:30:42.043Z,47.95
2023-05-05T04:33:10.903Z,48.08
2023-05-05T04:35:39.431Z,48.18
2023-05-05T04:38:07.844Z,48.05
2023-05-05T04:40:39.749Z,48.00
2023-05-05T04:43:10.678Z,48.28
2023-05-05T04:45:39.267Z,48.40
2023-05-05T04:48:08.297Z,49.14
2023-05-05T04:50:37.020Z,49.09
2023-05-05T04:53:05.402Z,48.32
2023-05-05T04:55:34.081Z,49.02
2023-05-05T04:58:02.595Z,49.67
2023-05-05T05:00:32.475Z,49.91
2023-05-05T05:03:01.106Z,50.11
2023-05-05T05:05:30.563Z,49.98
2023-05-05T05:07:59.187Z,49.81
2023-05-05T05:10:28.439Z,49.88
2023-05-05T05:12:56.931Z,49.72
2023-05-05T05:15:25.700Z,49.70
2023-05-05T05:17:55.660Z,49.97
2023-05-05T05:20:24.603Z,50.10
2023-05-05T05:22:53.956Z,49.76
2023-05-05T05:25:23.310Z,49.67
2023-05-05T05:28:02.189Z,50.00
2023-05-05T05:30:38.612Z,49.77
2023-05-05T05:33:10.602Z,49.41
2023-05-05T05:35:39.571Z,49.66
2023-05-05T05:38:08.207Z,49.80
2023-05-05T05:40:37.395Z,49.65
2023-05-05T05:43:05.873Z,49.70
2023-05-05T05:45:35.861Z,49.38
2023-05-05T05:48:06.637Z,49.02
2023-05-05T05:50:36.455Z,49.44
2023-05-05T05:53:05.670Z,50.04
2023-05-05T05:55:34.357Z,50.02
2023-05-05T05:58:03.430Z,49.92
2023-05-05T06:00:32.084Z,49.96
2023-05-05T06:03:07.245Z,49.74
2023-05-05T06:05:40.076Z,49.43
2023-05-05T06:08:09.121Z,49.54
2023-05-05T06:10:42.542Z,49.84
2023-05-05T06:13:16.503Z,49.90
2023-05-05T06:15:48.328Z,49.82
2023-05-05T06:18:17.972Z,49.93
2023-05-05T06:20:50.350Z,49.66
2023-05-05T06:23:19.678Z,49.79
2023-05-05T06:25:54.500Z,49.60
2023-05-05T06:28:22.988Z,49.86
2023-05-05T06:30:51.732Z,50.17
2023-05-05T06:33:20.166Z,49.43
2023-05-05T06:35:50.129Z,49.16
2023-05-05T06:38:18.500Z,48.82
2023-05-05T06:40:48.538Z,49.15
2023-05-05T06:43:17.639Z,48.73
2023-05-05T06:45:53.359Z,49.23
2023-05-05T06:48:22.068Z,49.39
2023-05-05T06:50:51.924Z,49.39
2023-05-05T06:53:20.398Z,48.69
2023-05-05T06:55:49.210Z,49.03
2023-05-05T06:58:17.617Z,49.36
2023-05-05T07:00:46.024Z,48.93
2023-05-05T07:03:14.629Z,49.24
2023-05-05T07:05:43.260Z,49.34
2023-05-05T07:08:13.724Z,49.65
2023-05-05T07:10:42.157Z,49.75
2023-05-05T07:13:10.674Z,49.62
2023-05-05T07:15:46.143Z,49.90
2023-05-05T07:18:14.604Z,49.56
2023-05-05T07:20:43.406Z,49.97
2023-05-05T07:23:13.143Z,50.02
2023-05-05T07:25:41.689Z,50.14
2023-05-05T07:28:10.285Z,49.55
2023-05-05T07:30:38.736Z,49.51
2023-05-05T07:33:07.300Z,49.80
2023-05-05T07:35:35.753Z,49.85
2023-05-05T07:38:04.149Z,49.20
2023-05-05T07:40:34.415Z,49.65
2023-05-05T07:43:02.765Z,49.67
2023-05-05T07:45:31.492Z,49.59
2023-05-05T07:48:00.022Z,49.82
2023-05-05T07:50:28.480Z,49.80
2023-05-05T07:53:06.119Z,49.62
2023-05-05T07:55:43.284Z,49.80
2023-05-05T07:58:11.971Z,49.37
2023-05-05T08:00:40.851Z,49.72
2023-05-05T08:03:11.652Z,49.70
2023-05-05T08:05:40.687Z,49.87
2023-05-05T08:08:09.303Z,50.19
2023-05-05T08:10:37.731Z,50.03
2023-05-05T08:13:07.688Z,49.73
2023-05-05T08:15:36.186Z,49.69
2023-05-05T08:18:04.909Z,49.80
2023-05-05T08:20:33.384Z,49.84
2023-05-05T08:23:01.846Z,50.33
2023-05-05T08:25:30.415Z,49.65
2023-05-05T08:27:58.900Z,50.26
2023-05-05T08:30:31.256Z,49.89
2023-05-05T08:33:00.580Z,49.88
2023-05-05T08:35:29.039Z,50.25
2023-05-05T08:37:59.068Z,49.82
2023-05-05T08:40:34.291Z,49.77
2023-05-05T08:43:03.012Z,49.88
2023-05-05T08:45:33.255Z,50.07
2023-05-05T08:48:03.677Z,50.10
2023-05-05T08:50:33.272Z,50.08
2023-05-05T08:53:10.619Z,50.15
2023-05-05T08:55:46.274Z,50.60
2023-05-05T08:58:16.444Z,50.55
2023-05-05T09:00:46.819Z,50.35
2023-05-05T09:03:16.706Z,50.26
2023-05-05T09:05:45.635Z,50.26
2023-05-05T09:08:14.633Z,50.72
2023-05-05T09:10:44.651Z,50.56
2023-05-05T09:13:13.388Z,50.77
2023-05-05T09:15:42.532Z,50.56
2023-05-05T09:18:13.092Z,51.28
2023-05-05T09:20:42.189Z,51.34
2023-05-05T09:23:12.050Z,51.43
2023-05-05T09:25:41.222Z,51.24
2023-05-05T09:28:11.275Z,50.87
2023-05-05T09:30:40.862Z,51.90
2023-05-05T09:33:09.459Z,52.16
2023-05-05T09:35:52.416Z,51.70
2023-05-05T09:38:22.071Z,52.71
2023-05-05T09:40:52.137Z,52.97
2023-05-05T09:43:22.550Z,52.93
2023-05-05T09:45:51.801Z,53.30
2023-05-05T09:48:27.601Z,53.41
2023-05-05T09:50:59.116Z,53.33
2023-05-05T09:53:39.648Z,53.53
2023-05-05T09:56:09.185Z,53.29
2023-05-05T09:58:37.797Z,53.63
2023-05-05T10:01:06.430Z,53.76
2023-05-05T10:03:34.959Z,53.66
2023-05-05T10:06:07.624Z,54.07
2023-05-05T10:08:36.059Z,54.17
2023-05-05T10:11:06.894Z,53.72
2023-05-05T10:13:37.742Z,54.47
2023-05-05T10:16:09.701Z,54.14
2023-05-05T10:18:44.697Z,54.75
2023-05-05T10:21:20.055Z,54.59
2023-05-05T10:23:50.782Z,54.10
2023-05-05T10:26:23.177Z,53.92
2023-05-05T10:28:56.058Z,53.81
2023-05-05T10:31:34.512Z,53.94
2023-05-05T10:34:06.708Z,53.85
2023-05-05T10:36:38.777Z,54.09
2023-05-05T10:39:09.302Z,53.78
2023-05-05T10:41:38.618Z,53.99
2023-05-05T10:44:07.901Z,54.37
2023-05-05T10:46:36.421Z,54.34
2023-05-05T10:49:13.268Z,54.85
2023-05-05T10:51:53.528Z,55.03
2023-05-05T10:54:31.717Z,54.33
2023-05-05T10:57:02.509Z,54.17
2023-05-05T10:59:48.904Z,54.27
2023-05-05T11:02:22.055Z,54.30
2023-05-05T11:05:07.346Z,53.49
2023-05-05T11:07:37.497Z,54.31
2023-05-05T11:10:07.839Z,54.22
2023-05-05T11:13:06.510Z,54.72
2023-05-05T11:15:38.613Z,54.45
2023-05-05T11:18:08.465Z,54.20
2023-05-05T11:21:15.640Z,54.03
2023-05-05T11:23:47.691Z,53.18
2023-05-05T11:26:18.202Z,53.23
2023-05-05T11:28:59.236Z,52.90
2023-05-05T11:31:28.122Z,53.23
2023-05-05T11:33:56.710Z,53.22
2023-05-05T11:36:42.277Z,52.89
2023-05-05T11:39:22.873Z,53.67
2023-05-05T11:42:12.871Z,53.63
2023-05-05T11:44:42.520Z,53.85
2023-05-05T11:47:29.644Z,53.18
2023-05-05T11:49:58.221Z,53.51
2023-05-05T11:52:28.332Z,54.09
2023-05-05T11:55:03.772Z,54.08
2023-05-05T11:57:32.380Z,54.42
2023-05-05T12:00:02.973Z,53.67
2023-05-05T12:02:35.703Z,54.22
2023-05-05T12:05:04.965Z,54.40
2023-05-05T12:07:34.331Z,53.68
2023-05-05T12:10:04.440Z,53.53
2023-05-05T12:12:38.007Z,53.57
2023-05-05T12:15:07.971Z,54.56
2023-05-05T12:17:39.680Z,54.40
2023-05-05T12:20:10.130Z,53.66
2023-05-05T12:22:39.125Z,53.99
2023-05-05T12:25:09.912Z,53.35
2023-05-05T12:27:38.731Z,53.21
2023-05-05T12:30:16.461Z,53.07
2023-05-05T12:32:45.924Z,53.58
2023-05-05T12:35:15.941Z,53.67
2023-05-05T12:37:44.721Z,53.55
2023-05-05T12:40:46.085Z,52.96
2023-05-05T12:43:26.410Z,53.30
2023-05-05T12:46:09.116Z,53.29
2023-05-05T12:48:39.312Z,53.37
2023-05-05T12:51:15.957Z,52.76
2023-05-05T12:53:44.773Z,53.87
2023-05-05T12:56:36.042Z,54.15
2023-05-05T12:59:06.104Z,54.18
2023-05-05T13:01:34.936Z,53.55
2023-05-05T13:04:08.667Z,53.28
2023-05-05T13:06:37.782Z,52.50
2023-05-05T13:09:07.008Z,52.51
2023-05-05T13:11:40.595Z,52.81
2023-05-05T13:14:09.427Z,52.48
2023-05-05T13:16:37.926Z,53.03
2023-05-05T13:19:06.389Z,52.99
2023-05-05T13:21:34.960Z,52.70
2023-05-05T13:26:35.623Z,52.47
2023-05-05T13:29:05.431Z,52.57
2023-05-05T13:31:33.930Z,52.45
2023-05-05T13:34:02.504Z,52.25
2023-05-05T13:36:31.242Z,51.72
2023-05-05T13:38:59.598Z,51.62
2023-05-05T13:41:28.060Z,51.95
2023-05-05T13:43:56.546Z,52.08
2023-05-05T13:46:26.485Z,51.83
2023-05-05T13:48:56.899Z,51.67
2023-05-05T13:51:25.486Z,51.83
2023-05-05T13:53:53.974Z,52.09
2023-05-05T13:56:26.056Z,51.89
2023-05-05T13:58:54.612Z,51.86
2023-05-05T14:01:23.115Z,51.67
2023-05-05T14:03:54.442Z,52.11
2023-05-05T14:06:24.022Z,52.35
2023-05-05T14:08:52.616Z,52.84
2023-05-05T14:11:21.383Z,52.89
2023-05-05T14:13:49.818Z,52.97
2023-05-05T14:16:18.297Z,52.89
2023-05-05T14:18:46.671Z,52.43
2023-05-05T14:21:16.692Z,52.47
2023-05-05T14:23:45.192Z,53.07
2023-05-05T14:26:13.583Z,53.13
2023-05-05T14:28:42.225Z,53.06
2023-05-05T14:31:11.111Z,53.16
2023-05-05T14:33:39.631Z,53.05
2023-05-05T14:36:08.761Z,52.94
2023-05-05T14:38:38.635Z,53.38
2023-05-05T14:41:07.056Z,53.44
2023-05-05T14:43:36.809Z,53.30
2023-05-05T14:46:07.104Z,52.91
2023-05-05T14:48:36.035Z,53.17
2023-05-05T14:51:04.648Z,53.17
2023-05-05T14:53:33.145Z,53.07
2023-05-05T14:56:03.156Z,53.28
2023-05-05T14:58:31.530Z,52.88
2023-05-05T15:01:00.498Z,53.12
2023-05-05T15:03:29.147Z,52.90
2023-05-05T15:05:57.804Z,52.88
2023-05-05T15:08:26.249Z,52.60
2023-05-05T15:10:54.755Z,52.88
2023-05-05T15:13:24.462Z,52.90
2023-05-05T15:15:53.032Z,52.33
2023-05-05T15:18:21.485Z,51.02
2023-05-05T15:20:49.944Z,51.67
2023-05-05T15:23:18.452Z,51.80
2023-05-05T15:25:46.911Z,51.65
2023-05-05T15:28:15.297Z,51.45
2023-05-05T15:30:45.527Z,51.05
2023-05-05T15:33:14.096Z,51.57
2023-05-05T15:35:42.538Z,51.70
2023-05-05T15:38:11.110Z,51.42
2023-05-05T15:40:39.603Z,51.53
2023-05-05T15:43:07.992Z,51.91
2023-05-05T15:45:36.383Z,51.72
2023-05-05T15:48:06.848Z,51.33
2023-05-05T15:50:35.350Z,51.50
2023-05-05T15:53:03.777Z,51.72
2023-05-05T15:55:32.203Z,51.47
2023-05-05T15:58:01.008Z,52.05
2023-05-05T16:00:31.362Z,51.95
2023-05-05T16:02:59.908Z,52.10
2023-05-05T16:05:29.774Z,51.86
2023-05-05T16:07:58.124Z,51.89
2023-05-05T16:10:26.681Z,51.91
2023-05-05T16:12:55.172Z,52.06
2023-05-05T16:15:23.918Z,51.50
2023-05-05T16:17:52.422Z,51.88
2023-05-05T16:20:20.960Z,51.84
2023-05-05T16:22:50.781Z,51.97
2023-05-05T16:25:19.820Z,52.12
2023-05-05T16:27:48.255Z,51.72
2023-05-05T16:30:16.860Z,51.99
2023-05-05T16:32:45.321Z,52.46
2023-05-05T16:35:13.785Z,52.64
2023-05-05T16:37:42.294Z,52.64
2023-05-05T16:40:13.378Z,52.80
2023-05-05T16:42:44.219Z,54.06
2023-05-05T16:45:12.963Z,53.98
2023-05-05T16:47:41.466Z,54.05
2023-05-05T16:50:10.401Z,53.97
2023-05-05T16:52:38.868Z,54.10
2023-05-05T16:55:08.036Z,54.36
2023-05-05T16:57:38.026Z,54.14
2023-05-05T17:00:07.838Z,54.21
2023-05-05T17:02:36.804Z,53.98
2023-05-05T17:05:06.170Z,53.82
2023-05-05T17:07:34.965Z,54.01
2023-05-05T17:10:03.515Z,53.65
2023-05-05T17:12:32.079Z,53.69
2023-05-05T17:15:02.269Z,53.50
2023-05-05T17:17:30.797Z,53.53
2023-05-05T17:19:59.398Z,53.55
2023-05-05T17:22:28.421Z,53.52
2023-05-05T17:24:57.172Z,53.48
2023-05-05T17:27:25.750Z,53.03
2023-05-05T17:29:54.620Z,52.94
2023-05-05T17:32:24.497Z,53.32
2023-05-05T17:34:52.907Z,53.21
2023-05-05T17:37:21.459Z,52.94
2023-05-05T17:39:50.024Z,53.12
2023-05-05T17:42:22.771Z,53.11
2023-05-05T17:44:51.295Z,52.93
2023-05-05T17:47:22.445Z,53.17
2023-05-05T17:49:53.653Z,52.91
2023-05-05T17:52:22.670Z,52.58
2023-05-05T17:54:51.567Z,52.65
2023-05-05T17:57:22.801Z,52.61
2023-05-05T17:59:53.310Z,52.85
2023-05-05T18:02:22.430Z,52.82
2023-05-05T18:04:52.349Z,52.64
2023-05-05T18:07:20.811Z,53.46
2023-05-05T18:09:49.255Z,53.24
2023-05-05T18:12:17.675Z,53.69
2023-05-05T18:14:46.128Z,53.71
2023-05-05T18:17:14.585Z,53.22
2023-05-05T18:19:46.161Z,53.63
2023-05-05T18:22:17.605Z,53.38
2023-05-05T18:24:46.786Z,53.55
2023-05-05T18:27:15.546Z,53.88
2023-05-05T18:29:43.983Z,53.34
2023-05-05T18:32:12.418Z,53.61
2023-05-05T18:34:40.811Z,53.65
2023-05-05T18:37:09.313Z,53.19
2023-05-05T18:39:39.109Z,53.12
2023-05-05T18:42:08.192Z,52.90
2023-05-05T18:44:36.664Z,53.00
2023-05-05T18:47:05.347Z,53.24
2023-05-05T18:49:33.914Z,52.90
2023-05-05T18:52:02.438Z,53.03
2023-05-05T18:54:31.041Z,53.15
2023-05-05T18:57:01.142Z,53.15
2023-05-05T18:59:29.834Z,53.14
2023-05-05T19:01:59.347Z,53.24
2023-05-05T19:04:31.791Z,53.00
2023-05-05T19:07:00.466Z,53.01
2023-05-05T19:09:28.930Z,52.71
2023-05-05T19:11:57.344Z,53.04
2023-05-05T19:14:27.192Z,53.13
2023-05-05T19:16:58.971Z,52.90
2023-05-05T19:19:27.663Z,53.14
2023-05-05T19:21:56.774Z,53.12
2023-05-05T19:24:25.267Z,52.84
2023-05-05T19:26:53.776Z,53.05
2023-05-05T19:29:22.212Z,52.87
2023-05-05T19:31:52.077Z,53.02
2023-05-05T19:34:21.650Z,52.77
2023-05-05T19:36:50.193Z,53.19
2023-05-05T19:39:18.589Z,52.95
2023-05-05T19:41:47.018Z,53.17
2023-05-05T19:44:15.595Z,52.77
2023-05-05T19:46:44.047Z,52.74
2023-05-05T19:49:13.898Z,52.86
2023-05-05T19:51:43.722Z,53.08
2023-05-05T19:54:12.203Z,53.17
2023-05-05T19:56:40.628Z,53.07
2023-05-05T19:59:09.298Z,53.20
2023-05-05T20:01:37.902Z,52.72
2023-05-05T20:04:06.448Z,52.87
2023-05-05T20:06:37.442Z,52.59
2023-05-05T20:09:06.544Z,52.72
2023-05-05T20:11:35.660Z,52.81
2023-05-05T20:14:04.232Z,53.00
2023-05-05T20:16:33.480Z,53.07
2023-05-05T20:19:02.072Z,52.74
2023-05-05T20:21:31.074Z,52.63
2023-05-05T20:24:01.170Z,52.51
2023-05-05T20:26:29.641Z,52.80
2023-05-05T20:28:58.214Z,52.76
2023-05-05T20:31:26.800Z,52.61
2023-05-05T20:33:55.265Z,52.80
2023-05-05T20:36:26.236Z,52.57
2023-05-05T20:38:54.850Z,52.86
2023-05-05T20:41:24.705Z,52.89
2023-05-05T20:43:53.109Z,52.52
2023-05-05T20:46:21.568Z,52.82
2023-05-05T20:48:50.013Z,52.87
2023-05-05T20:51:18.488Z,52.71
2023-05-05T20:53:47.151Z,52.43
2023-05-05T20:56:15.580Z,52.85
2023-05-05T20:58:45.322Z,52.61
2023-05-05T21:01:13.726Z,52.52
2023-05-05T21:03:42.195Z,52.81
2023-05-05T21:06:10.578Z,52.57
2023-05-05T21:08:39.580Z,52.65
2023-05-05T21:11:10.070Z,52.42
2023-05-05T21:13:38.516Z,53.03
2023-05-05T21:16:08.500Z,52.62
2023-05-05T21:18:37.007Z,52.49
2023-05-05T21:21:05.546Z,52.77
2023-05-05T21:23:34.046Z,52.84
2023-05-05T21:26:03.444Z,52.85
2023-05-05T21:28:31.884Z,52.72
2023-05-05T21:31:20.400Z,52.75
2023-05-05T21:33:50.219Z,52.90
2023-05-05T21:36:19.417Z,52.82
2023-05-05T21:38:47.995Z,52.94
2023-05-05T21:41:16.686Z,52.81
2023-05-05T21:43:45.169Z,52.77
2023-05-05T21:46:13.604Z,52.58
2023-05-05T21:48:41.998Z,52.83
2023-05-05T21:51:11.746Z,52.76
2023-05-05T21:53:40.953Z,52.71
2023-05-05T21:56:09.499Z,52.78
2023-05-05T21:58:37.967Z,52.92
2023-05-05T22:01:06.550Z,52.87
2023-05-05T22:03:35.457Z,52.82
2023-05-05T22:06:04.133Z,52.50
2023-05-05T22:08:33.893Z,52.55
2023-05-05T22:11:02.663Z,52.98
2023-05-05T22:13:31.214Z,52.51
2023-05-05T22:15:59.747Z,52.62
2023-05-05T22:18:28.280Z,52.81
2023-05-05T22:20:56.882Z,52.69
2023-05-05T22:23:25.341Z,52.53
2023-05-05T22:25:55.072Z,52.64
2023-05-05T22:28:23.837Z,52.95
2023-05-05T22:30:52.425Z,52.62
2023-05-05T22:33:20.876Z,52.81
2023-05-05T22:35:49.294Z,52.87
2023-05-05T22:38:17.709Z,52.63
2023-05-05T22:40:46.472Z,52.86
2023-05-05T22:43:16.268Z,52.85
2023-05-05T22:45:45.117Z,52.54
2023-05-05T22:48:13.566Z,52.55
2023-05-05T22:50:42.413Z,52.66
2023-05-05T22:53:10.897Z,52.83
2023-05-05T22:55:39.414Z,52.49
2023-05-05T22:58:08.701Z,52.84
2023-05-05T23:00:38.570Z,52.60
2023-05-05T23:03:06.995Z,52.58
2023-05-05T23:05:35.710Z,52.52
2023-05-05T23:08:04.350Z,52.49
2023-05-05T23:10:32.825Z,52.58
2023-05-05T23:13:01.250Z,52.45
2023-05-05T23:15:30.026Z,52.76
2023-05-05T23:17:59.835Z,52.60
2023-05-05T23:20:28.454Z,52.55
2023-05-05T23:22:57.238Z,52.78
2023-05-05T23:25:25.667Z,52.78
2023-05-05T23:27:54.127Z,52.88
2023-05-05T23:30:22.646Z,52.73
2023-05-05T23:32:51.214Z,52.43
2023-05-05T23:35:21.369Z,52.72
2023-05-05T23:37:50.188Z,52.76
2023-05-05T23:40:18.720Z,52.72
2023-05-05T23:42:47.179Z,52.80
2023-05-05T23:45:18.068Z,52.73
2023-05-05T23:47:47.742Z,52.93
2023-05-05T23:50:16.381Z,52.52
2023-05-05T23:52:46.099Z,52.54
2023-05-05T23:55:14.827Z,52.38
2023-05-05T23:57:43.317Z,52.44
